createdAt,value
2019-04-22T00:00:36.129Z,62.50
2019-04-22T00:02:42.288Z,62.80
2019-04-22T00:04:53.642Z,63.00
2019-04-22T00:07:03.162Z,63.00
2019-04-22T00:09:11.144Z,63.20
2019-04-22T00:11:23.093Z,63.10
2019-04-22T00:13:25.966Z,63.20
2019-04-22T00:15:18.123Z,63.20
2019-04-22T00:17:36.639Z,63.30
2019-04-22T00:19:45.743Z,63.20
2019-04-22T00:21:35.304Z,63.20
2019-04-22T00:23:37.340Z,63.30
2019-04-22T00:25:46.021Z,63.50
2019-04-22T00:27:47.713Z,63.50
2019-04-22T00:29:59.904Z,63.90
2019-04-22T00:31:58.998Z,64.20
2019-04-22T00:34:06.226Z,64.60
2019-04-22T00:36:14.839Z,64.50
2019-04-22T00:38:18.681Z,64.50
2019-04-22T00:40:21.067Z,64.40
2019-04-22T00:42:21.161Z,64.80
2019-04-22T00:44:33.251Z,65.10
2019-04-22T00:46:36.174Z,65.40
2019-04-22T00:48:33.231Z,66.10
2019-04-22T00:50:40.254Z,66.30
2019-04-22T00:52:43.730Z,66.50
2019-04-22T00:54:47.330Z,66.60
2019-04-22T00:56:47.927Z,66.60
2019-04-22T00:58:46.665Z,66.60
2019-04-22T01:01:00.145Z,66.40
2019-04-22T01:03:01.663Z,66.40
2019-04-22T01:05:04.013Z,66.10
2019-04-22T01:07:09.442Z,65.90
2019-04-22T01:09:11.254Z,65.60
2019-04-22T01:11:16.927Z,65.30
2019-04-22T01:13:22.843Z,65.30
2019-04-22T01:15:23.661Z,65.40
2019-04-22T01:17:27.057Z,65.70
2019-04-22T01:19:34.774Z,66.00
2019-04-22T01:21:36.979Z,66.30
2019-04-22T01:23:34.555Z,66.90
2019-04-22T01:25:39.214Z,67.40
2019-04-22T01:27:34.976Z,68.10
2019-04-22T01:29:39.692Z,68.00
2019-04-22T01:31:34.613Z,68.10
2019-04-22T01:33:40.756Z,68.00
2019-04-22T01:35:58.427Z,68.10
2019-04-22T01:38:00.031Z,67.90
2019-04-22T01:40:12.706Z,67.90
2019-04-22T01:42:10.925Z,68.20
2019-04-22T01:44:27.876Z,68.00
2019-04-22T01:46:29.943Z,68.00
2019-04-22T01:48:26.387Z,68.00
2019-04-22T01:50:31.774Z,68.00
2019-04-22T01:52:32.660Z,67.70
2019-04-22T01:54:43.399Z,67.40
2019-04-22T01:56:40.989Z,67.60
2019-04-22T01:58:38.104Z,67.40
2019-04-22T02:00:49.468Z,67.20
2019-04-22T02:02:48.732Z,67.60
2019-04-22T02:06:57.779Z,67.90
2019-04-22T02:11:07.920Z,69.00
2019-04-22T02:13:11.525Z,69.40
2019-04-22T02:15:13.874Z,69.60
2019-04-22T02:17:22.505Z,69.80
2019-04-22T02:19:29.102Z,69.60
2019-04-22T02:21:13.699Z,69.70
2019-04-22T02:23:45.190Z,69.80
2019-04-22T02:25:34.615Z,69.60
2019-04-22T02:31:45.325Z,70.50
2019-04-22T02:36:15.570Z,70.20
2019-04-22T02:37:54.496Z,70.50
2019-04-22T02:40:10.207Z,71.20
2019-04-22T02:42:03.195Z,70.70
2019-04-22T02:44:09.622Z,70.40
2019-04-22T02:46:22.959Z,70.10
2019-04-22T02:48:26.581Z,69.90
2019-04-22T02:50:08.987Z,69.70
2019-04-22T02:52:25.548Z,70.10
2019-04-22T02:58:38.902Z,69.80
2019-04-22T03:00:38.008Z,69.80
2019-04-22T03:02:46.109Z,70.00
2019-04-22T03:04:41.465Z,70.20
2019-04-22T03:08:45.554Z,70.50
2019-04-22T03:10:56.497Z,70.40
2019-04-22T03:12:54.062Z,70.10
2019-04-22T03:17:17.987Z,70.30
2019-04-22T03:19:13.888Z,71.40
2019-04-22T03:21:07.389Z,70.40
2019-04-22T03:25:43.810Z,70.30
2019-04-22T03:29:18.141Z,70.70
2019-04-22T03:34:22.569Z,71.00
2019-04-22T03:37:48.817Z,71.10
2019-04-22T03:39:55.275Z,71.20
2019-04-22T03:45:51.701Z,72.00
2019-04-22T03:47:59.640Z,72.40
2019-04-22T03:50:06.120Z,72.80
2019-04-22T03:56:32.676Z,72.50
2019-04-22T03:58:30.557Z,73.00
2019-04-22T04:00:29.632Z,73.20
2019-04-22T04:06:29.702Z,73.50
2019-04-22T04:12:51.199Z,74.40
2019-04-22T04:17:00.220Z,73.90
2019-04-22T04:23:14.244Z,74.20
2019-04-22T04:25:19.609Z,74.20
2019-04-22T04:27:18.324Z,74.40
2019-04-22T04:29:26.068Z,74.00
2019-04-22T04:31:24.543Z,74.50
2019-04-22T04:35:40.473Z,74.80
2019-04-22T04:39:26.777Z,74.70
2019-04-22T04:41:33.792Z,74.50
2019-04-22T04:43:35.617Z,74.00
2019-04-22T04:45:47.727Z,75.80
2019-04-22T04:49:52.445Z,76.80
2019-04-22T04:53:57.037Z,75.50
2019-04-22T04:55:57.937Z,75.40
2019-04-22T04:58:09.040Z,74.10
2019-04-22T05:02:04.047Z,73.80
2019-04-22T05:06:12.680Z,74.50
2019-04-22T05:08:16.723Z,74.80
2019-04-22T05:10:23.838Z,75.30
2019-04-22T05:18:29.628Z,74.10
2019-04-22T05:22:35.997Z,75.40
2019-04-22T05:24:40.640Z,73.80
2019-04-22T05:26:40.006Z,74.50
2019-04-22T05:28:42.301Z,74.00
2019-04-22T05:30:43.731Z,74.10
2019-04-22T05:33:01.806Z,74.40
2019-04-22T05:34:52.935Z,74.80
2019-04-22T05:36:58.935Z,75.10
2019-04-22T05:39:00.088Z,74.40
2019-04-22T05:41:02.677Z,73.10
2019-04-22T05:43:01.832Z,74.80
2019-04-22T05:45:10.251Z,74.20
2019-04-22T05:47:14.918Z,73.60
2019-04-22T05:51:21.719Z,73.50
2019-04-22T05:53:20.132Z,73.70
2019-04-22T05:55:43.610Z,73.40
2019-04-22T05:57:26.613Z,73.20
2019-04-22T05:59:36.159Z,73.10
2019-04-22T06:03:39.446Z,71.90
2019-04-22T06:05:43.863Z,70.80
2019-04-22T06:07:47.209Z,71.50
2019-04-22T06:09:55.397Z,70.30
2019-04-22T06:11:50.935Z,70.20
2019-04-22T06:13:57.602Z,70.20
2019-04-22T06:16:03.665Z,70.00
2019-04-22T06:18:16.146Z,69.90
2019-04-22T06:20:09.021Z,69.30
2019-04-22T06:22:23.849Z,68.90
2019-04-22T06:24:23.569Z,68.80
2019-04-22T06:26:31.241Z,68.40
2019-04-22T06:28:38.431Z,68.60
2019-04-22T06:30:28.782Z,67.80
2019-04-22T06:32:51.876Z,68.10
2019-04-22T06:34:44.103Z,69.10
2019-04-22T06:36:47.611Z,67.50
2019-04-22T06:39:00.212Z,67.50
2019-04-22T06:43:01.073Z,66.70
2019-04-22T06:45:02.828Z,67.10
2019-04-22T06:47:00.245Z,65.00
2019-04-22T06:49:03.443Z,65.70
2019-04-22T06:51:02.607Z,65.70
2019-04-22T06:53:26.595Z,65.10
2019-04-22T06:55:30.756Z,64.70
2019-04-22T06:57:11.565Z,64.10
2019-04-22T06:59:18.424Z,64.20
2019-04-22T07:01:35.787Z,63.50
2019-04-22T07:05:27.997Z,63.20
2019-04-22T07:07:34.926Z,62.40
2019-04-22T07:11:38.006Z,61.70
2019-04-22T07:13:43.001Z,61.30
2019-04-22T07:15:59.535Z,60.60
2019-04-22T07:17:49.243Z,60.80
2019-04-22T07:19:47.159Z,60.00
2019-04-22T07:21:57.924Z,60.40
2019-04-22T07:24:14.498Z,60.20
2019-04-22T07:25:58.197Z,59.50
2019-04-22T07:28:05.063Z,59.70
2019-04-22T07:32:39.725Z,59.50
2019-04-22T07:34:22.242Z,59.00
2019-04-22T07:36:42.154Z,59.30
2019-04-22T07:38:26.663Z,58.70
2019-04-22T07:40:28.798Z,59.00
2019-04-22T07:42:32.922Z,58.40
2019-04-22T07:46:43.437Z,57.30
2019-04-22T07:52:44.954Z,57.50
2019-04-22T07:54:53.029Z,56.90
2019-04-22T07:57:04.602Z,56.50
2019-04-22T07:58:55.846Z,54.90
2019-04-22T08:01:03.801Z,55.90
2019-04-22T08:03:06.698Z,55.40
2019-04-22T08:07:14.676Z,55.20
2019-04-22T08:11:30.199Z,54.10
2019-04-22T08:13:17.254Z,54.20
2019-04-22T08:15:30.725Z,54.30
2019-04-22T08:21:35.818Z,53.80
2019-04-22T08:23:35.487Z,53.00
2019-04-22T08:25:41.106Z,52.60
2019-04-22T08:27:46.848Z,52.60
2019-04-22T08:29:53.485Z,53.00
2019-04-22T08:32:05.102Z,53.20
2019-04-22T08:33:54.360Z,52.60
2019-04-22T08:38:01.474Z,52.30
2019-04-22T08:40:08.854Z,51.40
2019-04-22T08:42:16.225Z,51.70
2019-04-22T08:44:07.628Z,50.90
2019-04-22T08:46:25.327Z,50.70
2019-04-22T08:48:16.448Z,50.90
2019-04-22T08:50:19.723Z,50.10
2019-04-22T08:52:29.655Z,50.50
2019-04-22T08:54:31.187Z,50.20
2019-04-22T08:56:45.021Z,49.20
2019-04-22T09:00:44.518Z,49.50
2019-04-22T09:02:49.094Z,48.60
2019-04-22T09:04:45.016Z,49.80
2019-04-22T09:11:00.035Z,44.40
2019-04-22T09:13:00.611Z,44.30
2019-04-22T09:14:57.792Z,43.60
2019-04-22T09:17:13.404Z,43.40
2019-04-22T09:19:24.095Z,44.80
2019-04-22T09:21:18.730Z,43.10
2019-04-22T09:23:23.552Z,43.00
2019-04-22T09:25:22.179Z,43.80
2019-04-22T09:27:34.890Z,44.10
2019-04-22T09:29:30.079Z,43.40
2019-04-22T09:31:31.812Z,42.10
2019-04-22T09:33:31.894Z,42.30
2019-04-22T09:35:43.686Z,44.30
2019-04-22T09:39:53.478Z,43.20
2019-04-22T09:43:54.609Z,43.70
2019-04-22T09:45:52.874Z,43.40
2019-04-22T09:48:05.911Z,43.00
2019-04-22T09:50:03.692Z,42.90
2019-04-22T09:52:06.290Z,43.70
2019-04-22T09:54:14.930Z,42.00
2019-04-22T09:56:09.679Z,43.60
2019-04-22T09:58:20.896Z,42.60
2019-04-22T10:02:28.441Z,41.20
2019-04-22T10:04:25.295Z,42.10
2019-04-22T10:06:34.001Z,42.20
2019-04-22T10:08:40.717Z,41.10
2019-04-22T10:10:48.929Z,40.90
2019-04-22T10:14:45.134Z,39.30
2019-04-22T10:16:59.966Z,42.00
2019-04-22T10:18:52.889Z,42.10
2019-04-22T10:20:54.441Z,43.00
2019-04-22T10:22:59.228Z,41.40
2019-04-22T10:27:01.572Z,42.70
2019-04-22T10:29:11.037Z,43.60
2019-04-22T10:31:14.512Z,41.70
2019-04-22T10:33:23.949Z,41.70
2019-04-22T10:35:15.489Z,41.20
2019-04-22T10:37:18.025Z,41.30
2019-04-22T10:39:18.325Z,41.60
2019-04-22T10:41:20.725Z,41.60
2019-04-22T10:43:23.197Z,40.50
2019-04-22T10:45:26.077Z,40.80
2019-04-22T10:47:28.012Z,39.70
2019-04-22T10:49:30.592Z,39.90
2019-04-22T10:51:32.790Z,40.00
2019-04-22T10:53:35.597Z,38.90
2019-04-22T10:55:40.459Z,40.90
2019-04-22T10:57:41.092Z,39.90
2019-04-22T10:59:44.890Z,40.00
2019-04-22T11:02:11.778Z,39.80
2019-04-22T11:04:14.995Z,41.00
2019-04-22T11:06:17.198Z,40.20
2019-04-22T11:08:27.229Z,38.90
2019-04-22T11:10:41.194Z,40.00
2019-04-22T11:12:29.980Z,40.20
2019-04-22T11:14:30.675Z,40.10
2019-04-22T11:16:32.255Z,38.90
2019-04-22T11:18:33.781Z,39.70
2019-04-22T11:20:35.842Z,40.40
2019-04-22T11:22:38.790Z,41.00
2019-04-22T11:24:41.507Z,38.90
2019-04-22T11:26:43.188Z,38.80
2019-04-22T11:28:49.598Z,38.00
2019-04-22T11:30:52.327Z,38.70
2019-04-22T11:32:55.953Z,37.80
2019-04-22T11:34:58.105Z,37.70
2019-04-22T11:37:01.025Z,38.20
2019-04-22T11:39:07.625Z,36.90
2019-04-22T11:41:09.335Z,37.10
2019-04-22T11:43:12.380Z,37.60
2019-04-22T11:45:15.290Z,37.80
2019-04-22T11:47:17.383Z,37.70
2019-04-22T11:49:19.334Z,36.20
2019-04-22T11:51:22.125Z,36.90
2019-04-22T11:53:24.845Z,35.30
2019-04-22T11:55:46.750Z,35.00
2019-04-22T11:57:49.785Z,37.30
2019-04-22T11:59:51.274Z,35.90
2019-04-22T12:01:52.999Z,35.90
2019-04-22T12:03:55.710Z,34.90
2019-04-22T12:05:57.801Z,35.30
2019-04-22T12:07:59.481Z,36.00
2019-04-22T12:10:13.286Z,36.40
2019-04-22T12:12:07.675Z,35.00
2019-04-22T12:14:13.838Z,33.90
2019-04-22T12:16:15.323Z,34.70
2019-04-22T12:18:17.289Z,35.20
2019-04-22T12:20:20.225Z,34.50
2019-04-22T12:22:25.101Z,33.80
2019-04-22T12:24:27.990Z,32.70
2019-04-22T12:26:30.633Z,33.80
2019-04-22T12:28:32.932Z,33.30
2019-04-22T12:30:35.248Z,33.40
2019-04-22T12:32:36.978Z,33.50
2019-04-22T12:34:39.663Z,32.10
2019-04-22T12:36:42.613Z,34.10
2019-04-22T12:38:45.283Z,33.00
2019-04-22T12:40:54.412Z,32.70
2019-04-22T12:42:51.379Z,33.20
2019-04-22T12:44:54.106Z,32.20
2019-04-22T12:46:56.378Z,31.70
2019-04-22T12:48:58.279Z,31.00
2019-04-22T12:51:04.937Z,32.10
2019-04-22T12:53:10.618Z,32.00
2019-04-22T12:55:09.991Z,31.40
2019-04-22T12:57:12.346Z,31.70
2019-04-22T12:59:14.029Z,30.70
2019-04-22T13:01:15.309Z,30.00
2019-04-22T13:03:17.853Z,29.00
2019-04-22T13:05:20.157Z,30.40
2019-04-22T13:07:21.829Z,30.20
2019-04-22T13:09:23.258Z,31.20
2019-04-22T13:11:30.286Z,30.20
2019-04-22T13:13:28.803Z,30.10
2019-04-22T13:15:30.831Z,29.60
2019-04-22T13:17:32.951Z,29.60
2019-04-22T13:19:34.274Z,30.60
2019-04-22T13:21:36.479Z,30.00
2019-04-22T13:23:39.013Z,28.70
2019-04-22T13:25:40.929Z,29.40
2019-04-22T13:27:44.824Z,29.10
2019-04-22T13:29:46.822Z,29.50
2019-04-22T13:31:48.934Z,28.30
2019-04-22T13:33:53.669Z,27.70
2019-04-22T13:35:54.340Z,28.80
2019-04-22T13:37:57.240Z,29.20
2019-04-22T13:39:59.088Z,27.90
2019-04-22T13:42:03.945Z,28.80
2019-04-22T13:44:03.631Z,28.30
2019-04-22T13:46:06.183Z,28.60
2019-04-22T13:50:49.960Z,28.40
2019-04-22T13:52:48.613Z,28.50
2019-04-22T13:54:00.252Z,29.70
2019-04-22T13:54:48.945Z,28.40
2019-04-22T13:56:43.603Z,28.60
2019-04-22T13:58:39.536Z,29.30
2019-04-22T14:00:36.281Z,29.10
2019-04-22T14:02:48.558Z,29.20
2019-04-22T14:04:52.673Z,27.60
2019-04-22T14:06:54.674Z,27.70
2019-04-22T14:08:56.150Z,28.20
2019-04-22T14:11:10.962Z,27.40
2019-04-22T14:13:01.983Z,27.80
2019-04-22T14:15:06.269Z,27.40
2019-04-22T14:17:09.019Z,28.30
2019-04-22T14:19:11.910Z,26.50
2019-04-22T14:21:14.793Z,27.40
2019-04-22T14:23:17.601Z,27.30
2019-04-22T14:25:18.933Z,27.00
2019-04-22T14:27:30.699Z,27.40
2019-04-22T14:29:26.869Z,26.80
2019-04-22T14:31:28.597Z,26.80
2019-04-22T14:33:30.382Z,26.60
2019-04-22T14:35:31.941Z,26.70
2019-04-22T14:37:34.211Z,26.90
2019-04-22T14:39:35.827Z,26.90
2019-04-22T14:41:55.390Z,28.10
2019-04-22T14:44:23.970Z,26.70
2019-04-22T14:46:20.421Z,27.50
2019-04-22T14:48:11.113Z,27.20
2019-04-22T14:50:14.084Z,26.10
2019-04-22T14:52:15.121Z,26.90
2019-04-22T14:54:13.714Z,25.70
2019-04-22T14:56:00.327Z,26.70
2019-04-22T14:58:01.476Z,27.10
2019-04-22T15:00:09.507Z,26.00
2019-04-22T15:02:11.837Z,26.40
2019-04-22T15:04:13.380Z,24.70
2019-04-22T15:06:15.834Z,25.60
2019-04-22T15:08:17.405Z,26.30
2019-04-22T15:10:20.165Z,27.60
2019-04-22T15:12:31.083Z,26.80
2019-04-22T15:14:25.668Z,26.30
2019-04-22T15:16:38.395Z,25.80
2019-04-22T15:18:44.443Z,26.00
2019-04-22T15:21:02.609Z,23.20
2019-04-22T15:23:04.754Z,26.20
2019-04-22T15:25:06.551Z,25.40
2019-04-22T15:27:08.750Z,25.60
2019-04-22T15:29:11.412Z,25.70
2019-04-22T15:31:13.280Z,25.60
2019-04-22T15:33:15.222Z,25.60
2019-04-22T15:35:17.528Z,25.80
2019-04-22T15:37:20.350Z,26.60
2019-04-22T15:39:25.047Z,26.00
2019-04-22T15:41:26.454Z,27.00
2019-04-22T15:43:33.025Z,25.90
2019-04-22T15:45:34.933Z,25.80
2019-04-22T15:47:37.737Z,25.40
2019-04-22T15:49:40.263Z,24.60
2019-04-22T15:51:42.896Z,24.90
2019-04-22T15:53:45.462Z,25.70
2019-04-22T15:55:47.212Z,25.40
2019-04-22T15:57:49.835Z,24.30
2019-04-22T16:00:08.211Z,23.70
2019-04-22T16:01:58.610Z,24.90
2019-04-22T16:03:58.852Z,24.90
2019-04-22T16:06:02.020Z,24.10
2019-04-22T16:08:03.653Z,24.50
2019-04-22T16:10:05.938Z,25.80
2019-04-22T16:12:18.193Z,25.20
2019-04-22T16:14:15.076Z,24.80
2019-04-22T16:16:16.402Z,23.90
2019-04-22T16:18:18.355Z,25.00
2019-04-22T16:20:22.999Z,23.90
2019-04-22T16:22:25.129Z,25.10
2019-04-22T16:24:29.734Z,23.70
2019-04-22T16:26:40.167Z,24.00
2019-04-22T16:28:43.041Z,24.70
2019-04-22T16:30:45.533Z,25.00
2019-04-22T16:32:47.571Z,24.90
2019-04-22T16:34:49.904Z,24.10
2019-04-22T16:36:52.737Z,24.90
2019-04-22T16:38:55.435Z,23.60
2019-04-22T16:40:58.741Z,25.80
2019-04-22T16:43:03.835Z,23.20
2019-04-22T16:45:05.674Z,24.30
2019-04-22T16:47:08.034Z,23.70
2019-04-22T16:49:29.854Z,24.90
2019-04-22T16:51:32.073Z,23.30
2019-04-22T16:53:34.919Z,26.10
2019-04-22T16:55:36.900Z,25.70
2019-04-22T16:57:39.715Z,25.20
2019-04-22T16:59:42.783Z,25.80
2019-04-22T17:01:46.333Z,26.80
2019-04-22T17:04:07.023Z,26.40
2019-04-22T17:06:11.842Z,26.80
2019-04-22T17:08:14.288Z,27.00
2019-04-22T17:10:15.821Z,28.70
2019-04-22T17:12:17.189Z,29.10
2019-04-22T17:14:29.694Z,29.40
2019-04-22T17:16:21.805Z,31.00
2019-04-22T17:18:23.559Z,31.80
2019-04-22T17:20:25.387Z,31.20
2019-04-22T17:22:27.103Z,31.10
2019-04-22T17:24:35.837Z,30.90
2019-04-22T17:26:54.732Z,32.40
2019-04-22T17:29:04.003Z,32.20
2019-04-22T17:31:04.572Z,30.60
2019-04-22T17:33:06.456Z,31.80
2019-04-22T17:35:08.385Z,31.30
2019-04-22T17:37:18.329Z,33.10
2019-04-22T17:39:27.013Z,31.60
2019-04-22T17:41:28.327Z,34.10
2019-04-22T17:43:59.194Z,31.80
2019-04-22T17:45:54.141Z,34.10
2019-04-22T17:48:14.153Z,32.10
2019-04-22T17:50:16.932Z,31.50
2019-04-22T17:52:23.181Z,34.20
2019-04-22T17:54:19.169Z,32.40
2019-04-22T17:56:27.863Z,35.10
2019-04-22T17:58:34.723Z,34.00
2019-04-22T18:00:32.339Z,36.40
2019-04-22T18:02:32.237Z,34.10
2019-04-22T18:04:29.057Z,33.40
2019-04-22T18:06:58.244Z,34.40
2019-04-22T18:08:50.656Z,33.90
2019-04-22T18:10:54.336Z,35.70
2019-04-22T18:13:09.756Z,35.10
2019-04-22T18:15:04.016Z,34.80
2019-04-22T18:17:07.252Z,35.30
2019-04-22T18:19:10.100Z,37.90
2019-04-22T18:21:08.976Z,37.20
2019-04-22T18:23:04.292Z,37.60
2019-04-22T18:25:11.475Z,36.50
2019-04-22T18:29:28.097Z,36.70
2019-04-22T18:31:21.506Z,36.70
2019-04-22T18:33:33.940Z,37.10
2019-04-22T18:35:42.158Z,36.90
2019-04-22T18:37:42.481Z,37.80
2019-04-22T18:39:52.723Z,37.90
2019-04-22T18:41:48.701Z,39.50
2019-04-22T18:43:59.004Z,38.60
2019-04-22T18:46:05.253Z,38.00
2019-04-22T18:47:53.111Z,38.40
2019-04-22T18:50:03.344Z,39.30
2019-04-22T18:52:18.073Z,40.30
2019-04-22T18:54:18.034Z,39.60
2019-04-22T18:56:25.405Z,40.50
2019-04-22T18:58:21.468Z,40.30
2019-04-22T19:00:23.449Z,40.40
2019-04-22T19:02:28.754Z,39.10
2019-04-22T19:04:40.890Z,40.60
2019-04-22T19:06:56.209Z,40.20
2019-04-22T19:09:05.332Z,40.20
2019-04-22T19:13:41.958Z,40.20
2019-04-22T19:15:13.216Z,40.70
2019-04-22T19:17:21.585Z,40.70
2019-04-22T19:21:16.304Z,41.10
2019-04-22T19:23:22.659Z,41.40
2019-04-22T19:25:17.285Z,42.10
2019-04-22T19:27:31.260Z,42.40
2019-04-22T19:29:31.647Z,42.20
2019-04-22T19:31:37.361Z,42.40
2019-04-22T19:33:39.981Z,42.90
2019-04-22T19:35:37.016Z,43.20
2019-04-22T19:37:42.401Z,43.50
2019-04-22T19:39:52.559Z,43.70
2019-04-22T19:41:59.185Z,44.30
2019-04-22T19:43:56.937Z,44.10
2019-04-22T19:45:58.930Z,44.20
2019-04-22T19:48:03.601Z,44.20
2019-04-22T19:50:15.058Z,44.30
2019-04-22T19:52:12.830Z,44.10
2019-04-22T19:54:13.911Z,44.70
2019-04-22T19:56:10.087Z,44.90
2019-04-22T19:58:18.532Z,44.40
2019-04-22T20:00:22.902Z,44.90
2019-04-22T20:02:51.425Z,45.10
2019-04-22T20:05:24.588Z,45.50
2019-04-22T20:07:15.419Z,45.20
2019-04-22T20:09:26.376Z,45.50
2019-04-22T20:11:29.677Z,45.10
2019-04-22T20:13:30.630Z,44.70
2019-04-22T20:15:28.206Z,45.10
2019-04-22T20:18:11.685Z,45.70
2019-04-22T20:19:45.363Z,45.70
2019-04-22T20:21:40.614Z,45.10
2019-04-22T20:23:39.592Z,45.50
2019-04-22T20:25:44.917Z,45.90
2019-04-22T20:27:58.073Z,44.60
2019-04-22T20:30:02.400Z,44.80
2019-04-22T20:31:59.281Z,44.90
2019-04-22T20:34:09.127Z,45.30
2019-04-22T20:36:12.833Z,44.90
2019-04-22T20:38:12.198Z,45.10
2019-04-22T20:40:19.394Z,45.10
2019-04-22T20:42:31.366Z,45.30
2019-04-22T20:44:28.157Z,45.60
2019-04-22T20:46:24.095Z,45.40
2019-04-22T20:48:22.289Z,45.60
2019-04-22T20:50:39.502Z,45.90
2019-04-22T20:52:39.892Z,45.40
2019-04-22T20:54:40.727Z,46.50
2019-04-22T20:56:37.149Z,46.00
2019-04-22T20:58:46.623Z,46.40
2019-04-22T21:00:40.584Z,46.40
2019-04-22T21:02:44.011Z,47.30
2019-04-22T21:04:44.119Z,46.70
2019-04-22T21:06:55.989Z,46.60
2019-04-22T21:08:59.115Z,46.90
2019-04-22T21:10:57.714Z,47.80
2019-04-22T21:13:05.603Z,47.40
2019-04-22T21:15:13.623Z,47.20
2019-04-22T21:17:17.212Z,47.50
2019-04-22T21:19:28.024Z,48.50
2019-04-22T21:21:29.680Z,47.90
2019-04-22T21:23:24.230Z,48.10
2019-04-22T21:25:23.938Z,48.00
2019-04-22T21:27:35.385Z,48.70
2019-04-22T21:29:30.483Z,48.20
2019-04-22T21:31:43.754Z,48.10
2019-04-22T21:33:44.735Z,49.20
2019-04-22T21:37:50.591Z,48.30
2019-04-22T21:39:46.271Z,48.10
2019-04-22T21:41:51.436Z,48.70
2019-04-22T21:43:58.242Z,48.80
2019-04-22T21:46:04.870Z,48.30
2019-04-22T21:48:13.473Z,49.10
2019-04-22T21:50:31.043Z,49.40
2019-04-22T21:52:13.528Z,49.60
2019-04-22T21:54:21.563Z,49.40
2019-04-22T21:56:36.820Z,49.00
2019-04-22T21:58:27.496Z,49.90
2019-04-22T22:00:45.463Z,50.40
2019-04-22T22:02:46.476Z,49.40
2019-04-22T22:04:41.237Z,50.10
2019-04-22T22:06:40.400Z,50.60
2019-04-22T22:08:52.488Z,50.20
2019-04-22T22:10:51.207Z,49.80
2019-04-22T22:13:00.500Z,50.20
2019-04-22T22:15:04.195Z,50.10
2019-04-22T22:17:00.183Z,50.10
2019-04-22T22:19:22.405Z,50.40
2019-04-22T22:21:25.289Z,51.00
2019-04-22T22:23:22.434Z,50.70
2019-04-22T22:25:19.881Z,50.50
2019-04-22T22:27:20.494Z,50.80
2019-04-22T22:29:40.183Z,50.50
2019-04-22T22:31:38.160Z,50.90
2019-04-22T22:33:33.375Z,50.90
2019-04-22T22:35:39.179Z,50.70
2019-04-22T22:37:26.945Z,51.30
2019-04-22T22:39:35.765Z,51.40
2019-04-22T22:41:23.934Z,51.40
2019-04-22T22:43:33.650Z,51.70
2019-04-22T22:45:37.477Z,51.40
2019-04-22T22:47:53.394Z,51.80
2019-04-22T22:50:00.803Z,52.00
2019-04-22T22:52:26.279Z,51.70
2019-04-22T22:54:03.820Z,52.00
2019-04-22T22:56:13.985Z,52.60
2019-04-22T22:58:14.242Z,52.40
2019-04-22T23:00:15.040Z,51.90
2019-04-22T23:02:20.478Z,52.50
2019-04-22T23:04:28.395Z,52.50
2019-04-22T23:06:32.865Z,52.70
2019-04-22T23:08:34.285Z,53.20
2019-04-22T23:10:34.133Z,52.90
2019-04-22T23:12:40.532Z,52.80
2019-04-22T23:14:37.156Z,53.30
2019-04-22T23:16:31.566Z,53.50
2019-04-22T23:18:25.773Z,53.20
2019-04-22T23:20:34.375Z,53.20
2019-04-22T23:22:58.816Z,53.30
2019-04-22T23:24:55.512Z,53.70
2019-04-22T23:27:03.206Z,53.60
2019-04-22T23:29:10.403Z,53.30
2019-04-22T23:31:14.132Z,53.10
2019-04-22T23:33:40.538Z,53.20
2019-04-22T23:35:42.481Z,53.50
2019-04-22T23:37:52.333Z,53.90
2019-04-22T23:42:00.673Z,54.30
2019-04-22T23:44:02.070Z,54.30
2019-04-22T23:46:02.640Z,54.90
2019-04-22T23:48:05.861Z,54.70
2019-04-22T23:50:08.846Z,55.10
2019-04-22T23:52:19.189Z,54.80
2019-04-22T23:54:24.009Z,55.00
2019-04-22T23:56:28.060Z,55.20
2019-04-22T23:58:44.836Z,55.40
